Elettra — H9AK — position and weather

sailwx.info

Track history (hours):
 
Tides and Currents Weather Stations Pressure Air Temp Water Temp Dewpoint Dewpoint Depression Visibility Wind Speed Wind Dir Waves Ship Positions

Elettra

Last reported at 2017-Jun-17 04:10 UTC. Time now 2017-Jul-25 06:45 UTC.
Position S 32°22' E 152°51'.
Warning: this ship's position is 38 days out of date.

Length 254 m; draft 13.5 m.

Type: Cargo ship. MMSI: 371188000.

Date/timePositionNaut miles runAvg speedWind from/ knotsBaromVisibWave heightAir tempDewpointWater temp
2017-Jun-17 04:10S 32°22' E 152°51'9 9.0
2017-Jun-17 03:09S 32°30' E 152°48'3 8.6
2017-Jun-17 02:49S 32°33' E 152°47'3 8.6
2017-Jun-17 02:30S 32°36' E 152°46'4 8.5
2017-Jun-17 02:00S 32°40' E 152°44'5 9.3
2017-Jun-17 01:30S 32°43' E 152°40'610.7
2017-Jun-17 00:57S 32°45' E 152°34'511.0
2017-Jun-17 00:30S 32°47' E 152°28'611.3
2017-Jun-17 00:00S 32°50' E 152°23'611.4
2017-Jun-16 23:30S 32°53' E 152°17'612.1
2017-Jun-16 23:00S 32°54' E 152°09'612.7
2017-Jun-16 22:30S 32°55' E 152°02'611.4
2017-Jun-16 22:00S 32°56' E 151°55'4 8.8
2017-Jun-16 21:30S 32°56' E 151°50'2 4.8
2017-Jun-16 21:00S 32°55' E 151°47'2 3.2
2017-Jun-16 20:30S 32°54' E 151°46'1 2.9
2017-Jun-16 20:00S 32°53' E 151°45'0 0.0
2017-Jun-16 12:44S 32°53' E 151°45'0 0.0
2017-Jun-16 10:44S 32°53' E 151°45'0 0.0
2017-Jun-16 10:29S 32°53' E 151°45'0 0.0
2017-Jun-16 08:20S 32°53' E 151°45'0 0.0
2017-Jun-16 07:53S 32°53' E 151°45'0 0.0
2017-Jun-16 07:29S 32°53' E 151°45'0 0.0
2017-Jun-15 19:23S 32°53' E 151°45'0 0.0
2017-Jun-15 18:53S 32°53' E 151°45'0 0.0
2017-Jun-15 18:29S 32°53' E 151°45'0 0.0
2017-Jun-15 17:59S 32°53' E 151°45'0 0.0
2017-Jun-15 15:08S 32°53' E 151°45'0 0.0
2017-Jun-15 14:56S 32°53' E 151°45'0 0.0
2017-Jun-15 12:08S 32°53' E 151°45'0 0.0
2017-Jun-15 11:59S 32°53' E 151°45'0 0.0
2017-Jun-15 10:14S 32°53' E 151°45'0 0.0
2017-Jun-15 08:23S 32°53' E 151°45'1 1.9
2017-Jun-15 08:01S 32°53' E 151°46'2 3.4
2017-Jun-15 07:31S 32°55' E 151°46'3 6.2
2017-Jun-15 07:01S 32°55' E 151°50'4 8.8
2017-Jun-15 06:31S 32°59' E 151°53'4 7.1
2017-Jun-15 06:01S 33°00' E 151°57'4 8.6
2017-Jun-15 05:31S 33°00' E 152°02'5 9.4
2017-Jun-15 05:01S 33°01' E 152°08'5 9.3
2017-Jun-15 04:31S 33°02' E 152°13'4 8.9
2017-Jun-15 04:01S 33°02' E 152°18'1 2.9
2017-Jun-15 03:30S 33°03' E 152°19'1 1.2
2017-Jun-15 03:00S 33°04' E 152°19'1 1.2
2017-Jun-15 02:30S 33°05' E 152°20'1 1.2
2017-Jun-15 02:00S 33°05' E 152°19'1 1.2
2017-Jun-15 01:30S 33°06' E 152°19'1 1.2
2017-Jun-15 01:00S 33°06' E 152°20'0 1.0
2017-Jun-15 00:30S 33°07' E 152°20'0 0.8
2017-Jun-15 00:00S 33°07' E 152°20'0 0.7
2017-Jun-14 23:30S 33°08' E 152°20'0 0.6
2017-Jun-14 23:00S 33°08' E 152°20'0 0.5
2017-Jun-14 22:30S 33°08' E 152°20'0 0.3
2017-Jun-14 22:00S 33°08' E 152°20'0 0.0
2017-Jun-14 21:30S 33°08' E 152°20'0 0.2
2017-Jun-14 21:00S 33°08' E 152°20'1 1.5
2017-Jun-14 20:30S 33°08' E 152°19'4 7.6
2017-Jun-14 20:00S 33°05' E 152°16'5 9.1
2017-Jun-14 19:30S 33°02' E 152°12'5 9.2
2017-Jun-14 19:00S 32°59' E 152°08'3 5.6
2017-Jun-14 18:30S 32°58' E 152°05'1 1.2
2017-Jun-14 17:58S 32°58' E 152°05'1 1.2
2017-Jun-14 17:28S 32°59' E 152°06'1 1.1
2017-Jun-14 16:58S 32°59' E 152°06'0 1.0
2017-Jun-14 16:28S 32°59' E 152°07'0 1.0
2017-Jun-14 15:58S 32°59' E 152°07'0 1.0
2017-Jun-14 15:28S 32°60' E 152°08'1 1.0
2017-Jun-14 14:58S 32°60' E 152°08'1 0.9
2017-Jun-14 13:58S 33°00' E 152°09'1 1.1
2017-Jun-14 13:28S 33°00' E 152°10'1 1.0
2017-Jun-14 12:55S 33°00' E 152°11'0 0.8
2017-Jun-14 12:28S 33°00' E 152°11'0 0.8
2017-Jun-14 11:58S 33°01' E 152°12'0 0.7
2017-Jun-14 11:28S 33°01' E 152°12'0 0.8
2017-Jun-14 10:58S 33°01' E 152°12'0 0.6
2017-Jun-14 10:28S 33°01' E 152°13'0 0.7
2017-Jun-14 09:58S 33°01' E 152°13'0 0.8
2017-Jun-14 09:28S 33°02' E 152°13'0 0.9
2017-Jun-14 08:58S 33°02' E 152°13'0 1.0
2017-Jun-14 08:28S 33°02' E 152°14'0 1.0
2017-Jun-14 07:58S 33°03' E 152°14'1 1.1
2017-Jun-14 07:28S 33°03' E 152°14'1 1.1
2017-Jun-14 06:58S 33°04' E 152°15'0 1.0
2017-Jun-14 06:28S 33°04' E 152°15'1 1.1
2017-Jun-14 05:58S 33°05' E 152°15'1 1.2
2017-Jun-14 05:28S 33°05' E 152°16'1 1.2
2017-Jun-14 04:58S 33°06' E 152°16'1 1.2
2017-Jun-14 04:28S 33°06' E 152°17'1 1.2
2017-Jun-14 03:58S 33°07' E 152°17'1 1.3
2017-Jun-14 03:28S 33°07' E 152°18'1 1.3
2017-Jun-14 02:58S 33°07' E 152°19'1 1.3
2017-Jun-14 02:28S 33°08' E 152°19'1 1.2
2017-Jun-14 01:58S 33°08' E 152°20'1 1.2
2017-Jun-14 01:28S 33°08' E 152°20'1 1.1
2017-Jun-14 00:58S 33°09' E 152°21'1 1.1
2017-Jun-14 00:28S 33°09' E 152°21'1 1.0
2017-Jun-13 23:58S 33°09' E 152°22'1 1.0
2017-Jun-13 23:28S 33°09' E 152°23'1 1.1
2017-Jun-13 22:58S 33°09' E 152°23'1 1.1
2017-Jun-13 22:22S 33°09' E 152°24'0 1.1
2017-Jun-13 21:58S 33°09' E 152°25'2 1.2
2017-Jun-13 19:58S 33°09' E 152°27'1 0.4
2017-Jun-13 18:40S 33°09' E 152°28'0 1.6
2017-Jun-13 18:30S 33°08' E 152°28'4 7.3
2017-Jun-13 17:59S 33°05' E 152°25'4 8.8
2017-Jun-13 17:30S 33°01' E 152°23'4 8.3
2017-Jun-13 17:00S 32°58' E 152°21'4 7.9
2017-Jun-13 16:30S 32°54' E 152°18'1 1.6
2017-Jun-13 15:59S 32°55' E 152°17'1 1.6
2017-Jun-13 15:29S 32°55' E 152°18'1 1.7
2017-Jun-13 14:59S 32°56' E 152°18'1 1.7
2017-Jun-13 14:29S 32°57' E 152°18'2 1.6
2017-Jun-13 13:29S 32°59' E 152°18'1 1.6
2017-Jun-13 12:59S 32°59' E 152°19'1 1.5
2017-Jun-13 12:29S 33°00' E 152°19'1 1.5
2017-Jun-13 11:59S 33°01' E 152°19'1 1.5
2017-Jun-13 11:29S 33°02' E 152°19'1 1.6
2017-Jun-13 10:59S 33°02' E 152°19'1 1.5
2017-Jun-13 10:26S 33°03' E 152°19'1 1.5
2017-Jun-13 09:56S 33°04' E 152°19'1 1.5
2017-Jun-13 09:26S 33°05' E 152°19'1 1.5
2017-Jun-13 08:50S 33°06' E 152°19'1 1.4
2017-Jun-13 08:26S 33°06' E 152°19'1 1.4
2017-Jun-13 07:59S 33°07' E 152°19'1 1.3
2017-Jun-13 07:20S 33°08' E 152°19'0 0.9
2017-Jun-13 06:57S 33°08' E 152°19'3 6.8
2017-Jun-13 06:28S 33°05' E 152°16'4 8.4
2017-Jun-13 06:01S 33°02' E 152°13'4 8.1
2017-Jun-13 05:30S 32°59' E 152°11'3 7.0
2017-Jun-13 05:00S 32°57' E 152°07'1 1.6
2017-Jun-13 04:29S 32°58' E 152°07'1 1.4
2017-Jun-13 03:59S 32°59' E 152°07'1 1.4
2017-Jun-13 03:29S 32°59' E 152°07'1 1.4
2017-Jun-13 02:59S 32°60' E 152°07'1 1.3
2017-Jun-13 02:29S 33°01' E 152°07'1 1.4
2017-Jun-13 01:59S 33°01' E 152°08'1 1.4
2017-Jun-13 01:29S 33°02' E 152°08'1 1.3
2017-Jun-13 00:59S 33°03' E 152°08'1 1.3
2017-Jun-13 00:29S 33°03' E 152°08'1 1.3
2017-Jun-12 23:59S 33°04' E 152°08'1 1.2
2017-Jun-12 23:29S 33°04' E 152°08'1 1.2
2017-Jun-12 22:59S 33°05' E 152°09'1 1.1
2017-Jun-12 22:29S 33°05' E 152°09'1 1.1
2017-Jun-12 21:59S 33°06' E 152°09'1 2.5
2017-Jun-12 21:30S 33°06' E 152°08'4 8.5
2017-Jun-12 21:00S 33°03' E 152°04'4 8.7
2017-Jun-12 20:30S 33°01' E 151°59'4 8.6
2017-Jun-12 20:00S 32°60' E 151°54'2 3.2
2017-Jun-12 19:30S 32°58' E 151°54'1 1.8
2017-Jun-12 18:58S 32°59' E 151°55'1 1.9
2017-Jun-12 18:28S 32°59' E 151°56'1 1.8
2017-Jun-12 17:58S 32°60' E 151°57'1 1.8
2017-Jun-12 17:28S 33°00' E 151°57'1 1.8
2017-Jun-12 16:58S 33°01' E 151°58'1 1.7
2017-Jun-12 16:28S 33°01' E 151°59'1 1.5
2017-Jun-12 15:58S 33°02' E 151°60'1 1.6
2017-Jun-12 15:28S 33°02' E 152°01'1 1.3
2017-Jun-12 14:58S 33°03' E 152°01'1 1.2
2017-Jun-12 13:58S 33°04' E 152°02'1 1.1
2017-Jun-12 13:25S 33°04' E 152°03'0 1.1
2017-Jun-12 12:58S 33°04' E 152°03'0 1.0
2017-Jun-12 12:28S 33°05' E 152°04'0 1.0
2017-Jun-12 11:58S 33°05' E 152°04'0 0.9
2017-Jun-12 11:28S 33°05' E 152°05'0 0.7
2017-Jun-12 10:58S 33°05' E 152°05'0 0.8
2017-Jun-12 10:28S 33°05' E 152°05'0 0.6
2017-Jun-12 09:58S 33°05' E 152°06'0 0.7
2017-Jun-12 09:28S 33°05' E 152°06'0 0.8
2017-Jun-12 08:58S 33°05' E 152°07'0 0.8
2017-Jun-12 08:28S 33°05' E 152°07'0 0.8
2017-Jun-12 07:58S 33°05' E 152°07'0 0.8
2017-Jun-12 07:28S 33°05' E 152°08'0 0.6
2017-Jun-12 06:55S 33°05' E 152°08'0 0.7
2017-Jun-12 06:28S 33°04' E 152°09'1 1.0
2017-Jun-12 05:58S 33°04' E 152°09'0 0.9
2017-Jun-12 05:28S 33°04' E 152°10'0 0.9
2017-Jun-12 04:58S 33°04' E 152°10'1 1.2
2017-Jun-12 04:28S 33°03' E 152°10'1 1.2
2017-Jun-12 03:58S 33°03' E 152°11'1 1.7
2017-Jun-12 03:30S 33°02' E 152°10'3 5.3
2017-Jun-12 03:00S 33°04' E 152°09'5 9.0
2017-Jun-12 02:30S 33°08' E 152°07'5 9.2
2017-Jun-12 02:00S 33°13' E 152°05'5 9.1
2017-Jun-12 01:30S 33°17' E 152°03'2 0.7
2017-Jun-11 23:14S 33°18' E 152°05'7 0.9
2017-Jun-11 15:14S 33°14' E 152°12'1 1.9
2017-Jun-11 14:53S 33°13' E 152°13'1 2.1
2017-Jun-11 14:23S 33°13' E 152°14'2 2.6
2017-Jun-11 13:26S 33°11' E 152°15'1 2.4
2017-Jun-11 12:59S 33°10' E 152°16'1 2.4
2017-Jun-11 12:26S 33°09' E 152°17'1 2.3
2017-Jun-11 11:59S 33°08' E 152°18'1 2.2
2017-Jun-11 11:29S 33°07' E 152°19'1 2.3
2017-Jun-11 10:59S 33°07' E 152°20'1 2.0
2017-Jun-11 10:29S 33°06' E 152°21'1 1.9
2017-Jun-11 09:59S 33°05' E 152°22'1 1.8
2017-Jun-11 09:26S 33°05' E 152°23'1 1.7
2017-Jun-11 08:56S 33°05' E 152°24'1 1.5
2017-Jun-11 08:26S 33°04' E 152°25'1 1.7
2017-Jun-11 07:59S 33°04' E 152°25'1 1.8
2017-Jun-11 07:29S 33°03' E 152°26'1 1.7
2017-Jun-11 06:59S 33°03' E 152°27'1 1.6
2017-Jun-11 06:26S 33°02' E 152°28'1 1.6
2017-Jun-11 05:59S 33°02' E 152°29'1 1.4
2017-Jun-11 05:23S 33°01' E 152°29'2 4.9
2017-Jun-11 05:00S 33°03' E 152°27'5 9.3
2017-Jun-11 04:30S 33°06' E 152°24'2 4.3
2017-Jun-11 04:00S 33°07' E 152°21'611.7
2017-Jun-11 03:30S 33°02' E 152°26'611.3
2017-Jun-11 03:00S 32°58' E 152°30'611.7
2017-Jun-11 02:30S 32°53' E 152°35'611.7
2017-Jun-11 02:00S 32°49' E 152°39'611.8
2017-Jun-11 01:30S 32°43' E 152°41'612.0
2017-Jun-11 01:00S 32°37' E 152°43'611.8
2017-Jun-11 00:30S 32°32' E 152°46'711.7
2017-Jun-10 23:56S 32°25' E 152°48'264 7.0
2017-Jun-09 10:26S 28°07' E 153°51'510.2
2017-Jun-09 09:58S 28°03' E 153°51'510.0
2017-Jun-09 09:30S 27°58' E 153°51'5 9.8
2017-Jun-09 09:00S 27°53' E 153°51'5 9.7
2017-Jun-09 08:30S 27°48' E 153°51'510.0
2017-Jun-09 08:00S 27°43' E 153°51'5 9.8
2017-Jun-09 07:30S 27°38' E 153°51'5 9.8
2017-Jun-09 06:59S 27°33' E 153°51'510.0
2017-Jun-09 06:26S 27°28' E 153°51'17 9.8
2017-Jun-09 04:40S 27°10' E 153°51'212.2
2017-Jun-09 04:30S 27°08' E 153°51'8611.3
2017-Jun-08 20:50S 25°42' E 154°00'  
Track history (hours):
 
Tides and Currents Weather Stations Pressure Air Temp Water Temp Dewpoint Dewpoint Depression Visibility Wind Speed Wind Dir Waves Ship Positions

Elettra

Last reported at 2017-Jun-17 04:10 UTC. Time now 2017-Jul-25 06:45 UTC.
Position S 32°22' E 152°51'.
Warning: this ship's position is 38 days out of date.

Length 254 m; draft 13.5 m.

Type: Cargo ship. MMSI: 371188000.

Date/timePositionNaut miles runAvg speedWind from/ knotsBaromVisibWave heightAir tempDewpointWater temp
2017-Jun-17 04:10S 32°22' E 152°51'9 9.0
2017-Jun-17 03:09S 32°30' E 152°48'3 8.6
2017-Jun-17 02:49S 32°33' E 152°47'3 8.6
2017-Jun-17 02:30S 32°36' E 152°46'4 8.5
2017-Jun-17 02:00S 32°40' E 152°44'5 9.3
2017-Jun-17 01:30S 32°43' E 152°40'610.7
2017-Jun-17 00:57S 32°45' E 152°34'511.0
2017-Jun-17 00:30S 32°47' E 152°28'611.3
2017-Jun-17 00:00S 32°50' E 152°23'611.4
2017-Jun-16 23:30S 32°53' E 152°17'612.1
2017-Jun-16 23:00S 32°54' E 152°09'612.7
2017-Jun-16 22:30S 32°55' E 152°02'611.4
2017-Jun-16 22:00S 32°56' E 151°55'4 8.8
2017-Jun-16 21:30S 32°56' E 151°50'2 4.8
2017-Jun-16 21:00S 32°55' E 151°47'2 3.2
2017-Jun-16 20:30S 32°54' E 151°46'1 2.9
2017-Jun-16 20:00S 32°53' E 151°45'0 0.0
2017-Jun-16 12:44S 32°53' E 151°45'0 0.0
2017-Jun-16 10:44S 32°53' E 151°45'0 0.0
2017-Jun-16 10:29S 32°53' E 151°45'0 0.0
2017-Jun-16 08:20S 32°53' E 151°45'0 0.0
2017-Jun-16 07:53S 32°53' E 151°45'0 0.0
2017-Jun-16 07:29S 32°53' E 151°45'0 0.0
2017-Jun-15 19:23S 32°53' E 151°45'0 0.0
2017-Jun-15 18:53S 32°53' E 151°45'0 0.0
2017-Jun-15 18:29S 32°53' E 151°45'0 0.0
2017-Jun-15 17:59S 32°53' E 151°45'0 0.0
2017-Jun-15 15:08S 32°53' E 151°45'0 0.0
2017-Jun-15 14:56S 32°53' E 151°45'0 0.0
2017-Jun-15 12:08S 32°53' E 151°45'0 0.0
2017-Jun-15 11:59S 32°53' E 151°45'0 0.0
2017-Jun-15 10:14S 32°53' E 151°45'0 0.0
2017-Jun-15 08:23S 32°53' E 151°45'1 1.9
2017-Jun-15 08:01S 32°53' E 151°46'2 3.4
2017-Jun-15 07:31S 32°55' E 151°46'3 6.2
2017-Jun-15 07:01S 32°55' E 151°50'4 8.8
2017-Jun-15 06:31S 32°59' E 151°53'4 7.1
2017-Jun-15 06:01S 33°00' E 151°57'4 8.6
2017-Jun-15 05:31S 33°00' E 152°02'5 9.4
2017-Jun-15 05:01S 33°01' E 152°08'5 9.3
2017-Jun-15 04:31S 33°02' E 152°13'4 8.9
2017-Jun-15 04:01S 33°02' E 152°18'1 2.9
2017-Jun-15 03:30S 33°03' E 152°19'1 1.2
2017-Jun-15 03:00S 33°04' E 152°19'1 1.2
2017-Jun-15 02:30S 33°05' E 152°20'1 1.2
2017-Jun-15 02:00S 33°05' E 152°19'1 1.2
2017-Jun-15 01:30S 33°06' E 152°19'1 1.2
2017-Jun-15 01:00S 33°06' E 152°20'0 1.0
2017-Jun-15 00:30S 33°07' E 152°20'0 0.8
2017-Jun-15 00:00S 33°07' E 152°20'0 0.7
2017-Jun-14 23:30S 33°08' E 152°20'0 0.6
2017-Jun-14 23:00S 33°08' E 152°20'0 0.5
2017-Jun-14 22:30S 33°08' E 152°20'0 0.3
2017-Jun-14 22:00S 33°08' E 152°20'0 0.0
2017-Jun-14 21:30S 33°08' E 152°20'0 0.2
2017-Jun-14 21:00S 33°08' E 152°20'1 1.5
2017-Jun-14 20:30S 33°08' E 152°19'4 7.6
2017-Jun-14 20:00S 33°05' E 152°16'5 9.1
2017-Jun-14 19:30S 33°02' E 152°12'5 9.2
2017-Jun-14 19:00S 32°59' E 152°08'3 5.6
2017-Jun-14 18:30S 32°58' E 152°05'1 1.2
2017-Jun-14 17:58S 32°58' E 152°05'1 1.2
2017-Jun-14 17:28S 32°59' E 152°06'1 1.1
2017-Jun-14 16:58S 32°59' E 152°06'0 1.0
2017-Jun-14 16:28S 32°59' E 152°07'0 1.0
2017-Jun-14 15:58S 32°59' E 152°07'0 1.0
2017-Jun-14 15:28S 32°60' E 152°08'1 1.0
2017-Jun-14 14:58S 32°60' E 152°08'1 0.9
2017-Jun-14 13:58S 33°00' E 152°09'1 1.1
2017-Jun-14 13:28S 33°00' E 152°10'1 1.0
2017-Jun-14 12:55S 33°00' E 152°11'0 0.8
2017-Jun-14 12:28S 33°00' E 152°11'0 0.8
2017-Jun-14 11:58S 33°01' E 152°12'0 0.7
2017-Jun-14 11:28S 33°01' E 152°12'0 0.8
2017-Jun-14 10:58S 33°01' E 152°12'0 0.6
2017-Jun-14 10:28S 33°01' E 152°13'0 0.7
2017-Jun-14 09:58S 33°01' E 152°13'0 0.8
2017-Jun-14 09:28S 33°02' E 152°13'0 0.9
2017-Jun-14 08:58S 33°02' E 152°13'0 1.0
2017-Jun-14 08:28S 33°02' E 152°14'0 1.0
2017-Jun-14 07:58S 33°03' E 152°14'1 1.1
2017-Jun-14 07:28S 33°03' E 152°14'1 1.1
2017-Jun-14 06:58S 33°04' E 152°15'0 1.0
2017-Jun-14 06:28S 33°04' E 152°15'1 1.1
2017-Jun-14 05:58S 33°05' E 152°15'1 1.2
2017-Jun-14 05:28S 33°05' E 152°16'1 1.2
2017-Jun-14 04:58S 33°06' E 152°16'1 1.2
2017-Jun-14 04:28S 33°06' E 152°17'1 1.2
2017-Jun-14 03:58S 33°07' E 152°17'1 1.3
2017-Jun-14 03:28S 33°07' E 152°18'1 1.3
2017-Jun-14 02:58S 33°07' E 152°19'1 1.3
2017-Jun-14 02:28S 33°08' E 152°19'1 1.2
2017-Jun-14 01:58S 33°08' E 152°20'1 1.2
2017-Jun-14 01:28S 33°08' E 152°20'1 1.1
2017-Jun-14 00:58S 33°09' E 152°21'1 1.1
2017-Jun-14 00:28S 33°09' E 152°21'1 1.0
2017-Jun-13 23:58S 33°09' E 152°22'1 1.0
2017-Jun-13 23:28S 33°09' E 152°23'1 1.1
2017-Jun-13 22:58S 33°09' E 152°23'1 1.1
2017-Jun-13 22:22S 33°09' E 152°24'0 1.1
2017-Jun-13 21:58S 33°09' E 152°25'2 1.2
2017-Jun-13 19:58S 33°09' E 152°27'1 0.4
2017-Jun-13 18:40S 33°09' E 152°28'0 1.6
2017-Jun-13 18:30S 33°08' E 152°28'4 7.3
2017-Jun-13 17:59S 33°05' E 152°25'4 8.8
2017-Jun-13 17:30S 33°01' E 152°23'4 8.3
2017-Jun-13 17:00S 32°58' E 152°21'4 7.9
2017-Jun-13 16:30S 32°54' E 152°18'1 1.6
2017-Jun-13 15:59S 32°55' E 152°17'1 1.6
2017-Jun-13 15:29S 32°55' E 152°18'1 1.7
2017-Jun-13 14:59S 32°56' E 152°18'1 1.7
2017-Jun-13 14:29S 32°57' E 152°18'2 1.6
2017-Jun-13 13:29S 32°59' E 152°18'1 1.6
2017-Jun-13 12:59S 32°59' E 152°19'1 1.5
2017-Jun-13 12:29S 33°00' E 152°19'1 1.5
2017-Jun-13 11:59S 33°01' E 152°19'1 1.5
2017-Jun-13 11:29S 33°02' E 152°19'1 1.6
2017-Jun-13 10:59S 33°02' E 152°19'1 1.5
2017-Jun-13 10:26S 33°03' E 152°19'1 1.5
2017-Jun-13 09:56S 33°04' E 152°19'1 1.5
2017-Jun-13 09:26S 33°05' E 152°19'1 1.5
2017-Jun-13 08:50S 33°06' E 152°19'1 1.4
2017-Jun-13 08:26S 33°06' E 152°19'1 1.4
2017-Jun-13 07:59S 33°07' E 152°19'1 1.3
2017-Jun-13 07:20S 33°08' E 152°19'0 0.9
2017-Jun-13 06:57S 33°08' E 152°19'3 6.8
2017-Jun-13 06:28S 33°05' E 152°16'4 8.4
2017-Jun-13 06:01S 33°02' E 152°13'4 8.1
2017-Jun-13 05:30S 32°59' E 152°11'3 7.0
2017-Jun-13 05:00S 32°57' E 152°07'1 1.6
2017-Jun-13 04:29S 32°58' E 152°07'1 1.4
2017-Jun-13 03:59S 32°59' E 152°07'1 1.4
2017-Jun-13 03:29S 32°59' E 152°07'1 1.4
2017-Jun-13 02:59S 32°60' E 152°07'1 1.3
2017-Jun-13 02:29S 33°01' E 152°07'1 1.4
2017-Jun-13 01:59S 33°01' E 152°08'1 1.4
2017-Jun-13 01:29S 33°02' E 152°08'1 1.3
2017-Jun-13 00:59S 33°03' E 152°08'1 1.3
2017-Jun-13 00:29S 33°03' E 152°08'1 1.3
2017-Jun-12 23:59S 33°04' E 152°08'1 1.2
2017-Jun-12 23:29S 33°04' E 152°08'1 1.2
2017-Jun-12 22:59S 33°05' E 152°09'1 1.1
2017-Jun-12 22:29S 33°05' E 152°09'1 1.1
2017-Jun-12 21:59S 33°06' E 152°09'1 2.5
2017-Jun-12 21:30S 33°06' E 152°08'4 8.5
2017-Jun-12 21:00S 33°03' E 152°04'4 8.7
2017-Jun-12 20:30S 33°01' E 151°59'4 8.6
2017-Jun-12 20:00S 32°60' E 151°54'2 3.2
2017-Jun-12 19:30S 32°58' E 151°54'1 1.8
2017-Jun-12 18:58S 32°59' E 151°55'1 1.9
2017-Jun-12 18:28S 32°59' E 151°56'1 1.8
2017-Jun-12 17:58S 32°60' E 151°57'1 1.8
2017-Jun-12 17:28S 33°00' E 151°57'1 1.8
2017-Jun-12 16:58S 33°01' E 151°58'1 1.7
2017-Jun-12 16:28S 33°01' E 151°59'1 1.5
2017-Jun-12 15:58S 33°02' E 151°60'1 1.6
2017-Jun-12 15:28S 33°02' E 152°01'1 1.3
2017-Jun-12 14:58S 33°03' E 152°01'1 1.2
2017-Jun-12 13:58S 33°04' E 152°02'1 1.1
2017-Jun-12 13:25S 33°04' E 152°03'0 1.1
2017-Jun-12 12:58S 33°04' E 152°03'0 1.0
2017-Jun-12 12:28S 33°05' E 152°04'0 1.0
2017-Jun-12 11:58S 33°05' E 152°04'0 0.9
2017-Jun-12 11:28S 33°05' E 152°05'0 0.7
2017-Jun-12 10:58S 33°05' E 152°05'0 0.8
2017-Jun-12 10:28S 33°05' E 152°05'0 0.6
2017-Jun-12 09:58S 33°05' E 152°06'0 0.7
2017-Jun-12 09:28S 33°05' E 152°06'0 0.8
2017-Jun-12 08:58S 33°05' E 152°07'0 0.8
2017-Jun-12 08:28S 33°05' E 152°07'0 0.8
2017-Jun-12 07:58S 33°05' E 152°07'0 0.8
2017-Jun-12 07:28S 33°05' E 152°08'0 0.6
2017-Jun-12 06:55S 33°05' E 152°08'0 0.7
2017-Jun-12 06:28S 33°04' E 152°09'1 1.0
2017-Jun-12 05:58S 33°04' E 152°09'0 0.9
2017-Jun-12 05:28S 33°04' E 152°10'0 0.9
2017-Jun-12 04:58S 33°04' E 152°10'1 1.2
2017-Jun-12 04:28S 33°03' E 152°10'1 1.2
2017-Jun-12 03:58S 33°03' E 152°11'1 1.7
2017-Jun-12 03:30S 33°02' E 152°10'3 5.3
2017-Jun-12 03:00S 33°04' E 152°09'5 9.0
2017-Jun-12 02:30S 33°08' E 152°07'5 9.2
2017-Jun-12 02:00S 33°13' E 152°05'5 9.1
2017-Jun-12 01:30S 33°17' E 152°03'2 0.7
2017-Jun-11 23:14S 33°18' E 152°05'7 0.9
2017-Jun-11 15:14S 33°14' E 152°12'1 1.9
2017-Jun-11 14:53S 33°13' E 152°13'1 2.1
2017-Jun-11 14:23S 33°13' E 152°14'2 2.6
2017-Jun-11 13:26S 33°11' E 152°15'1 2.4
2017-Jun-11 12:59S 33°10' E 152°16'1 2.4
2017-Jun-11 12:26S 33°09' E 152°17'1 2.3
2017-Jun-11 11:59S 33°08' E 152°18'1 2.2
2017-Jun-11 11:29S 33°07' E 152°19'1 2.3
2017-Jun-11 10:59S 33°07' E 152°20'1 2.0
2017-Jun-11 10:29S 33°06' E 152°21'1 1.9
2017-Jun-11 09:59S 33°05' E 152°22'1 1.8
2017-Jun-11 09:26S 33°05' E 152°23'1 1.7
2017-Jun-11 08:56S 33°05' E 152°24'1 1.5
2017-Jun-11 08:26S 33°04' E 152°25'1 1.7
2017-Jun-11 07:59S 33°04' E 152°25'1 1.8
2017-Jun-11 07:29S 33°03' E 152°26'1 1.7
2017-Jun-11 06:59S 33°03' E 152°27'1 1.6
2017-Jun-11 06:26S 33°02' E 152°28'1 1.6
2017-Jun-11 05:59S 33°02' E 152°29'1 1.4
2017-Jun-11 05:23S 33°01' E 152°29'2 4.9
2017-Jun-11 05:00S 33°03' E 152°27'5 9.3
2017-Jun-11 04:30S 33°06' E 152°24'2 4.3
2017-Jun-11 04:00S 33°07' E 152°21'611.7
2017-Jun-11 03:30S 33°02' E 152°26'611.3
2017-Jun-11 03:00S 32°58' E 152°30'611.7
2017-Jun-11 02:30S 32°53' E 152°35'611.7
2017-Jun-11 02:00S 32°49' E 152°39'611.8
2017-Jun-11 01:30S 32°43' E 152°41'612.0
2017-Jun-11 01:00S 32°37' E 152°43'611.8
2017-Jun-11 00:30S 32°32' E 152°46'711.7
2017-Jun-10 23:56S 32°25' E 152°48'264 7.0
2017-Jun-09 10:26S 28°07' E 153°51'510.2
2017-Jun-09 09:58S 28°03' E 153°51'510.0
2017-Jun-09 09:30S 27°58' E 153°51'5 9.8
2017-Jun-09 09:00S 27°53' E 153°51'5 9.7
2017-Jun-09 08:30S 27°48' E 153°51'510.0
2017-Jun-09 08:00S 27°43' E 153°51'5 9.8
2017-Jun-09 07:30S 27°38' E 153°51'5 9.8
2017-Jun-09 06:59S 27°33' E 153°51'510.0
2017-Jun-09 06:26S 27°28' E 153°51'17 9.8
2017-Jun-09 04:40S 27°10' E 153°51'212.2
2017-Jun-09 04:30S 27°08' E 153°51'8611.3
2017-Jun-08 20:50S 25°42' E 154°00'  

Dump ship's entire track history